AirNav   Free Bose QuietComfort 20
 
 267 users online  

71FD Blackcreek International Heliport
Middleburg, Florida, USA

GOING TO MIDDLEBURG?


FAA INFORMATION EFFECTIVE 05 DECEMBER 2019

Location

FAA Identifier: 71FD
Lat/Long: 30-04-26.0000N 081-48-57.0000W
30-04.433333N 081-48.950000W
30.0738889,-81.8158333
(estimated)
Elevation: 5 ft. / 2 m (estimated)
Variation: 03W (1990)
From city: 2 miles E of MIDDLEBURG, FL
Time zone: UTC -5 (UTC -4 during Daylight Saving Time)
Zip code: 32043

Heliport Operations

Heliport use: Private use. Permission required prior to landing
Activation date: 11/1982
Control tower: no
ARTCC: JACKSONVILLE CENTER
FSS: GAINESVILLE FLIGHT SERVICE STATION
Attendance: UNATNDD
Wind indicator: yes
Segmented circle: no
Lights: LIGHT ON THE DOCK NEXT TO HELIPAD.

Heliport Communications

WX AWOS-3 at VQQ (9 nm N): 125.275 (904-778-6934)
WX AWOS-3 at HEG (12 nm N): 119.275 (904-695-0334)
WX AWOS-3 at 42J (18 nm SW): 124.275 (352-473-8273)

Nearby radio navigation aids

VOR radial/distance  VOR name  Freq  Var
VQQr158/(9.2)CECIL VOR117.9003W
CRGr228/22.5CRAIG VORTAC114.5003W
SGJr292/26.2ST AUGUSTINE VOR/DME109.4006W
GNVr050/33.0GATORS VORTAC116.2004W

 
NDB name  Hdg/Dist  Freq  Var  ID
REYNOLDS315/10.433807WRYD .-. -.-- -..

Heliport Services

Runway Information

Helipad H1

Dimensions: 15 x 15 ft. / 5 x 5 m
Surface: concrete
Traffic pattern: leftleft

Heliport Ownership and Management from official FAA records

Ownership: Privately-owned
Owner: ROBERT A. RAINES
3274 BYRON ROAD
GREEN CORE SPRINGS, FL 32043
Phone (904) 403-1985
Manager: ROBERT A. RAINES
3274 BYRON ROAD
GREEN CORE SPRINGS, FL 32043
Phone (904) 403-1985

Additional Remarks

FOR CD CTC JACKSONVILLE APCH AT 904-741-0284.

Instrument Procedures

There are no published instrument procedures at 71FD.

Some nearby airports with instrument procedures:

KVQQ - Cecil Airport (9 nm N)
KNIP - Jacksonville Naval Air Station (Towers Field) (12 nm NE)
KHEG - Herlong Recreational Airport (12 nm N)
42J - Keystone Airpark (18 nm SW)
KCRG - Jacksonville Executive Airport at Craig (22 nm NE)
 
Loc | Ops | Rwys | IFR | FBO | Links
Com | Nav | Svcs | Stats | Notes
Area around 71FD (Blackcreek International Heliport)
 
Road maps at: MapQuest Bing Google
 
Aerial photo
No photo
 
Sectional chart

 
Airport distance calculator
Flying to Blackcreek International Heliport? Find the distance to fly.

From to 71FD

Sunrise and sunset
Times for 16-Dec-2019
 Local
(UTC-5)
 Zulu
(UTC)
Morning civil twilight06:5111:51
Sunrise07:1712:17
Sunset17:2822:28
Evening civil twilight17:5522:55

Current date and time
Zulu (UTC)  16-Dec-2019 09:02:14
Local (UTC-5)  16-Dec-2019 04:02:14
 
METAR
KVQQ 
9nm N 
160855Z AUTO 00000KT 9SM FEW032 06/06 A3017 RMK AO2
KNIP 
12nm NE 
160853Z 00000KT 10SM CLR 13/11 A3018 RMK AO2 SLP213 T01280106 55002
KHEG 
12nm N 
160855Z AUTO 00000KT 9SM CLR 09/08 A3019 RMK AO2
K42J 
18nm SW 
160855Z AUTO 12004KT 7SM BKN031 10/10 A3016 RMK A01 TSNO
TAF
KVQQ 
9nm N 
160523Z 1606/1706 VRB02KT 4SM BR SKC TEMPO 1608/1612 1SM BR BKN002 FM161300 18007KT P6SM SCT250
KNIP 
12nm NE 
1607/1707 VRB06KT 9999 SKC QNH3014INS TEMPO 1607/1612 6000 BR FM161200 VRB06KT 9999 SKC QNH3010INS FM161800 17010KT 9999 FEW035 SCT250 QNH3005INS FM170100 VRB06KT 9999 FEW035 SCT150 SCT250 QNH3000INS T14/1610Z T25/1621Z FN00085
NOTAMs
Click for the latest NOTAMs
NOTAMs are issued by the DoD/FAA and will open in a separate window not controlled by AirNav.

 

 
 

Would you like to see your business listed on this page?

 If your business provides an interesting product or service to pilots, flight crews, aircraft, or users of the Blackcreek International Heliport, you should consider listing it here.  To start the listing process, click on the button below
 
Add a business
 

Other Pages about Blackcreek International Heliport

Update a link
 
Copyright © AirNav, LLC. All rights reserved. Privacy Policy  Contact